Time;durP1;ratioP1;P1;durP2;ratioP2;P2;SDS_P1;SDS_P2;PMS_P1;PMS_P2;Temp;Humidity;BMP_temperature;BMP_pressure;BME280_temperature;BME280_humidity;BME280_pressure;Samples;Min_cycle;Max_cycle;Signal;HPM_P1;HPM_P2
2023/07/26 00:00:53;;;;;;;21.00;6.55;;;;;;;;;;4354754;32;318507;-80
2023/07/26 00:03:20;;;;;;;17.05;6.95;;;;;;;;;;4346076;32;318742;-80
2023/07/26 00:05:47;;;;;;;19.40;7.03;;;;;;;;;;4355515;32;318094;-80
2023/07/26 00:08:14;;;;;;;17.25;5.95;;;;;;;;;;4346174;32;318140;-79
2023/07/26 00:10:44;;;;;;;18.42;6.90;;;;;;;;;;4356093;32;318317;-80
2023/07/26 00:13:11;;;;;;;17.83;6.43;;;;;;;;;;4346153;32;318307;-79
2023/07/26 00:15:39;;;;;;;19.35;6.22;;;;;;;;;;4347781;32;317468;-79
2023/07/26 00:18:06;;;;;;;20.17;6.30;;;;;;;;;;4336839;32;318210;-80
2023/07/26 00:20:35;;;;;;;17.50;7.22;;;;;;;;;;4355467;32;317646;-80
2023/07/26 00:23:02;;;;;;;20.05;6.62;;;;;;;;;;4345955;32;317571;-80
2023/07/26 00:25:29;;;;;;;25.85;7.80;;;;;;;;;;4356004;32;318565;-79
2023/07/26 00:27:56;;;;;;;17.27;6.85;;;;;;;;;;4355547;32;317935;-79
2023/07/26 00:30:23;;;;;;;22.90;8.13;;;;;;;;;;4342694;32;417527;-79
2023/07/26 00:32:51;;;;;;;25.90;9.18;;;;;;;;;;4353661;32;318502;-79
2023/07/26 00:35:22;;;;;;;17.35;7.45;;;;;;;;;;4344650;32;318427;-79
2023/07/26 00:37:50;;;;;;;14.70;6.68;;;;;;;;;;4355695;32;318205;-79
2023/07/26 00:40:17;;;;;;;20.30;7.47;;;;;;;;;;4345870;32;318042;-80
2023/07/26 00:42:44;;;;;;;16.77;7.05;;;;;;;;;;4355640;32;318340;-79
2023/07/26 00:45:11;;;;;;;15.45;7.10;;;;;;;;;;4343935;32;317729;-79
2023/07/26 00:47:38;;;;;;;19.40;6.78;;;;;;;;;;4352515;32;317998;-79
2023/07/26 00:50:08;;;;;;;19.02;7.30;;;;;;;;;;4345331;32;317926;-79
2023/07/26 00:52:36;;;;;;;20.35;6.85;;;;;;;;;;4357488;32;317757;-84
2023/07/26 00:55:03;;;;;;;14.80;6.87;;;;;;;;;;4346378;32;318137;-81
2023/07/26 00:57:30;;;;;;;19.52;6.60;;;;;;;;;;4354613;32;317767;-81
2023/07/26 00:59:57;;;;;;;29.73;7.03;;;;;;;;;;4349529;32;318462;-84
2023/07/26 01:02:24;;;;;;;21.67;6.90;;;;;;;;;;4354980;32;318339;-82
2023/07/26 01:04:51;;;;;;;19.83;6.57;;;;;;;;;;4353687;32;318286;-82
2023/07/26 01:07:27;;;;;;;15.23;6.07;;;;;;;;;;4344899;32;318337;-81
2023/07/26 01:10:04;;;;;;;18.08;6.28;;;;;;;;;;4354095;32;318201;-83
2023/07/26 01:12:38;;;;;;;14.55;5.82;;;;;;;;;;4327192;32;417477;-81
2023/07/26 01:15:08;;;;;;;13.40;7.00;;;;;;;;;;4329486;32;318348;-81
2023/07/26 01:17:35;;;;;;;15.30;7.53;;;;;;;;;;4338639;32;317663;-81
2023/07/26 01:20:01;;;;;;;17.98;7.00;;;;;;;;;;4326082;32;334255;-81
2023/07/26 01:22:30;;;;;;;20.85;7.43;;;;;;;;;;4339966;32;317569;-80
2023/07/26 01:24:57;;;;;;;17.52;7.70;;;;;;;;;;4334538;32;318138;-82
2023/07/26 01:27:24;;;;;;;21.37;7.80;;;;;;;;;;4340408;32;317571;-82
2023/07/26 01:29:55;;;;;;;17.17;7.78;;;;;;;;;;4340316;32;317412;-81
2023/07/26 01:32:25;;;;;;;12.95;6.28;;;;;;;;;;4326027;32;419382;-81
2023/07/26 01:34:52;;;;;;;16.83;7.45;;;;;;;;;;4338816;32;318257;-80
2023/07/26 01:37:20;;;;;;;18.35;6.80;;;;;;;;;;4329099;32;318608;-80
2023/07/26 01:39:49;;;;;;;16.55;7.68;;;;;;;;;;4339783;32;318038;-80
2023/07/26 01:42:17;;;;;;;17.27;7.12;;;;;;;;;;4330282;32;318599;-85
2023/07/26 01:44:43;;;;;;;23.65;8.13;;;;;;;;;;4353033;32;318496;-86
2023/07/26 01:47:10;;;;;;;14.82;6.87;;;;;;;;;;4344558;32;318431;-85
2023/07/26 01:49:37;;;;;;;14.23;6.37;;;;;;;;;;4353279;32;317636;-83
2023/07/26 01:52:04;;;;;;;15.80;7.22;;;;;;;;;;4343411;32;318171;-83
2023/07/26 01:54:31;;;;;;;24.00;6.78;;;;;;;;;;4354504;32;317868;-87
2023/07/26 01:56:59;;;;;;;19.12;7.50;;;;;;;;;;4343759;32;318298;-81
2023/07/26 01:59:26;;;;;;;17.73;7.00;;;;;;;;;;4353423;32;318028;-80
2023/07/26 02:01:52;;;;;;;16.27;7.53;;;;;;;;;;4354073;32;317784;-80
2023/07/26 02:04:19;;;;;;;18.52;7.00;;;;;;;;;;4343348;32;318508;-80
2023/07/26 02:06:46;;;;;;;17.90;7.23;;;;;;;;;;4330739;32;323905;-80
2023/07/26 02:09:13;;;;;;;19.00;7.18;;;;;;;;;;4354079;32;318328;-81
2023/07/26 02:11:40;;;;;;;18.17;7.30;;;;;;;;;;4344792;32;318501;-82
2023/07/26 02:14:08;;;;;;;16.42;6.68;;;;;;;;;;4368285;32;318303;-84
2023/07/26 02:16:34;;;;;;;19.98;7.15;;;;;;;;;;4343657;32;318419;-81
2023/07/26 02:19:01;;;;;;;14.38;6.95;;;;;;;;;;4353097;32;317803;-80
2023/07/26 02:21:28;;;;;;;14.90;7.55;;;;;;;;;;4354143;32;317807;-80
2023/07/26 02:23:54;;;;;;;16.52;7.12;;;;;;;;;;4344005;32;318684;-80
2023/07/26 02:26:21;;;;;;;18.25;7.72;;;;;;;;;;4353627;32;318160;-80
2023/07/26 02:28:48;;;;;;;20.80;7.93;;;;;;;;;;4342369;32;354053;-80
2023/07/26 02:31:16;;;;;;;15.18;6.97;;;;;;;;;;4353860;32;318264;-80
2023/07/26 02:33:42;;;;;;;23.83;6.95;;;;;;;;;;4344093;32;318605;-80
2023/07/26 02:36:09;;;;;;;14.87;6.60;;;;;;;;;;4353623;32;317502;-82
2023/07/26 02:38:36;;;;;;;12.48;6.85;;;;;;;;;;4343012;32;317756;-81
2023/07/26 02:41:03;;;;;;;10.93;6.82;;;;;;;;;;4353844;32;317745;-81
2023/07/26 02:43:30;;;;;;;19.90;6.80;;;;;;;;;;4354056;32;317505;-82
2023/07/26 02:45:56;;;;;;;18.87;7.62;;;;;;;;;;4343796;32;318172;-83
2023/07/26 02:48:25;;;;;;;19.87;8.50;;;;;;;;;;4353728;32;318366;-82
2023/07/26 02:50:51;;;;;;;15.98;6.95;;;;;;;;;;4343942;32;318434;-81
2023/07/26 02:53:18;;;;;;;17.48;7.60;;;;;;;;;;4352936;32;317768;-81
2023/07/26 02:55:45;;;;;;;18.55;7.18;;;;;;;;;;4346601;32;318213;-80
2023/07/26 02:58:11;;;;;;;14.87;7.72;;;;;;;;;;4360459;32;318296;-83
2023/07/26 03:00:38;;;;;;;18.25;7.60;;;;;;;;;;4354829;32;317612;-79
2023/07/26 03:03:05;;;;;;;23.15;8.35;;;;;;;;;;4361378;32;346135;-84
2023/07/26 03:05:33;;;;;;;24.40;8.55;;;;;;;;;;4353499;32;318603;-83
2023/07/26 03:08:00;;;;;;;16.10;8.05;;;;;;;;;;4340634;32;417288;-83
2023/07/26 03:10:26;;;;;;;15.65;7.95;;;;;;;;;;4352132;32;318190;-86
2023/07/26 03:12:55;;;;;;;18.15;7.95;;;;;;;;;;4336167;32;317815;-84
2023/07/26 03:15:22;;;;;;;14.00;8.07;;;;;;;;;;4360782;32;318440;-90
2023/07/26 03:17:49;;;;;;;17.33;8.10;;;;;;;;;;4342235;32;318418;-87
2023/07/26 03:20:16;;;;;;;16.17;8.07;;;;;;;;;;4352293;32;318550;-82
2023/07/26 03:22:44;;;;;;;16.35;8.20;;;;;;;;;;4342167;32;317930;-82
2023/07/26 03:25:11;;;;;;;16.40;8.07;;;;;;;;;;4353176;32;321404;-83
2023/07/26 03:27:37;;;;;;;21.80;8.40;;;;;;;;;;4343416;32;318564;-81
2023/07/26 03:30:05;;;;;;;20.08;8.48;;;;;;;;;;4352264;32;318591;-82
2023/07/26 03:32:32;;;;;;;19.60;7.85;;;;;;;;;;4351659;32;318683;-82
2023/07/26 03:34:59;;;;;;;15.63;7.82;;;;;;;;;;4340570;32;417484;-81
2023/07/26 03:37:26;;;;;;;18.10;9.10;;;;;;;;;;4356240;32;318220;-82
2023/07/26 03:39:54;;;;;;;16.30;8.57;;;;;;;;;;4346386;32;317665;-84
2023/07/26 03:42:21;;;;;;;15.48;7.32;;;;;;;;;;4356382;32;317916;-82
2023/07/26 03:44:47;;;;;;;15.60;7.72;;;;;;;;;;4347216;32;319561;-86
2023/07/26 03:47:14;;;;;;;20.08;8.38;;;;;;;;;;4355727;32;318296;-89
2023/07/26 03:49:41;;;;;;;21.05;8.20;;;;;;;;;;4346101;32;317898;-82
2023/07/26 03:52:09;;;;;;;21.30;7.75;;;;;;;;;;4355687;32;318304;-85
2023/07/26 03:54:36;;;;;;;23.60;7.35;;;;;;;;;;4339712;32;318277;-86
2023/07/26 03:57:04;;;;;;;23.00;8.82;;;;;;;;;;4341079;32;318413;-84
2023/07/26 03:59:31;;;;;;;20.60;7.72;;;;;;;;;;4340738;32;317562;-83
2023/07/26 04:01:57;;;;;;;22.67;8.10;;;;;;;;;;4330755;32;318702;-81
2023/07/26 04:04:24;;;;;;;19.92;8.35;;;;;;;;;;4339395;32;318138;-81
2023/07/26 04:06:51;;;;;;;20.90;7.32;;;;;;;;;;4330821;32;318348;-81
2023/07/26 04:09:20;;;;;;;23.10;7.37;;;;;;;;;;4340036;32;318312;-81
2023/07/26 04:11:47;;;;;;;20.67;7.60;;;;;;;;;;4337789;32;333700;-79
2023/07/26 04:14:15;;;;;;;29.02;8.38;;;;;;;;;;4355257;32;318150;-81
2023/07/26 04:16:42;;;;;;;25.77;8.25;;;;;;;;;;4338025;32;318453;-81
2023/07/26 04:19:08;;;;;;;18.37;8.00;;;;;;;;;;4340666;32;318333;-81
2023/07/26 04:21:35;;;;;;;19.37;8.73;;;;;;;;;;4329383;32;318236;-81
2023/07/26 04:24:03;;;;;;;18.10;8.18;;;;;;;;;;4339749;32;318479;-81
2023/07/26 04:26:30;;;;;;;13.98;7.87;;;;;;;;;;4339196;32;318554;-79
2023/07/26 04:28:57;;;;;;;18.95;7.82;;;;;;;;;;4327755;32;316451;-79
2023/07/26 04:31:28;;;;;;;21.73;7.50;;;;;;;;;;4335525;32;317806;-80
2023/07/26 04:33:55;;;;;;;31.67;8.98;;;;;;;;;;4329691;32;344180;-81
2023/07/26 04:36:22;;;;;;;22.48;8.13;;;;;;;;;;4340177;32;318178;-80
2023/07/26 04:38:49;;;;;;;30.15;8.68;;;;;;;;;;4330595;32;318456;-79
2023/07/26 04:41:15;;;;;;;19.62;8.80;;;;;;;;;;4339144;32;317640;-80
2023/07/26 04:43:42;;;;;;;24.12;9.30;;;;;;;;;;4329437;32;318448;-80
2023/07/26 04:46:09;;;;;;;21.95;10.07;;;;;;;;;;4338298;32;318410;-80
2023/07/26 04:48:37;;;;;;;19.62;8.65;;;;;;;;;;4329691;32;319390;-81
2023/07/26 04:51:04;;;;;;;20.67;8.27;;;;;;;;;;4341389;32;318305;-81
2023/07/26 04:53:30;;;;;;;20.20;9.52;;;;;;;;;;4342886;32;318092;-80
2023/07/26 04:55:57;;;;;;;19.92;8.80;;;;;;;;;;4329355;32;318619;-81
2023/07/26 04:58:25;;;;;;;28.75;9.15;;;;;;;;;;4338805;32;317947;-81
2023/07/26 05:00:51;;;;;;;24.00;10.48;;;;;;;;;;4329691;32;318249;-81
2023/07/26 05:03:18;;;;;;;25.58;9.23;;;;;;;;;;4340453;32;319452;-80
2023/07/26 05:05:51;;;;;;;17.83;10.27;;;;;;;;;;4344925;32;318187;-83
2023/07/26 05:08:17;;;;;;;17.98;9.20;;;;;;;;;;4354371;32;318757;-83
2023/07/26 05:10:48;;;;;;;15.50;9.20;;;;;;;;;;4344233;32;318527;-82
2023/07/26 05:13:15;;;;;;;28.42;9.60;;;;;;;;;;4365420;32;318087;-84
2023/07/26 05:15:41;;;;;;;19.45;9.07;;;;;;;;;;4347036;32;318399;-83
2023/07/26 05:18:08;;;;;;;23.08;7.82;;;;;;;;;;4353448;32;317495;-83
2023/07/26 05:20:35;;;;;;;25.12;9.15;;;;;;;;;;4343871;32;317646;-82
2023/07/26 05:23:03;;;;;;;23.87;8.40;;;;;;;;;;4354444;32;318029;-83
2023/07/26 05:25:29;;;;;;;20.20;8.18;;;;;;;;;;4354978;32;318231;-82
2023/07/26 05:27:56;;;;;;;23.48;8.50;;;;;;;;;;4344275;32;318158;-84
2023/07/26 05:30:24;;;;;;;30.80;8.70;;;;;;;;;;4351785;32;318120;-83
2023/07/26 05:32:50;;;;;;;23.40;8.35;;;;;;;;;;4344491;32;317753;-83
2023/07/26 05:35:17;;;;;;;21.15;9.60;;;;;;;;;;4353668;32;318231;-82
2023/07/26 05:37:44;;;;;;;29.83;9.57;;;;;;;;;;4344245;32;317819;-85
2023/07/26 05:40:12;;;;;;;28.98;10.00;;;;;;;;;;4353656;32;318533;-82
2023/07/26 05:42:39;;;;;;;22.70;8.80;;;;;;;;;;4341944;32;319376;-82
2023/07/26 05:45:09;;;;;;;25.55;9.15;;;;;;;;;;4351429;32;318112;-83
2023/07/26 05:47:38;;;;;;;32.05;10.73;;;;;;;;;;4341022;32;318207;-83
2023/07/26 05:50:05;;;;;;;28.58;9.73;;;;;;;;;;4352318;32;319733;-83
2023/07/26 05:52:32;;;;;;;19.50;10.00;;;;;;;;;;4351307;32;318165;-84
2023/07/26 05:54:59;;;;;;;30.50;11.43;;;;;;;;;;4339537;32;420284;-83
2023/07/26 05:57:27;;;;;;;29.60;11.52;;;;;;;;;;4353088;32;319379;-84
2023/07/26 05:59:54;;;;;;;27.33;9.20;;;;;;;;;;4343523;32;319588;-85
2023/07/26 06:02:20;;;;;;;22.98;9.88;;;;;;;;;;4354178;32;318219;-83
2023/07/26 06:04:48;;;;;;;23.77;9.77;;;;;;;;;;4342950;32;318471;-85
2023/07/26 06:07:16;;;;;;;15.20;8.70;;;;;;;;;;4350005;32;318526;-86
2023/07/26 06:09:43;;;;;;;23.12;10.18;;;;;;;;;;4327770;32;317650;-86
2023/07/26 06:12:10;;;;;;;21.30;9.05;;;;;;;;;;4343928;32;318681;-86
2023/07/26 06:14:38;;;;;;;22.25;9.25;;;;;;;;;;4334496;32;317825;-85
2023/07/26 06:17:05;;;;;;;24.37;9.50;;;;;;;;;;4344759;32;318577;-85
2023/07/26 06:19:32;;;;;;;23.35;9.32;;;;;;;;;;4338419;32;318093;-86
2023/07/26 06:21:59;;;;;;;25.42;9.50;;;;;;;;;;4337248;32;417916;-85
2023/07/26 06:24:26;;;;;;;23.20;8.68;;;;;;;;;;4338843;32;318132;-85
2023/07/26 06:26:53;;;;;;;26.48;9.65;;;;;;;;;;4328575;32;318128;-86
2023/07/26 06:29:20;;;;;;;19.12;9.35;;;;;;;;;;4337701;32;318383;-85
2023/07/26 06:31:49;;;;;;;24.98;9.43;;;;;;;;;;4327362;32;323299;-83
2023/07/26 06:34:16;;;;;;;22.35;8.77;;;;;;;;;;4338038;32;318076;-82
2023/07/26 06:36:42;;;;;;;19.02;8.48;;;;;;;;;;4327468;32;318223;-82
2023/07/26 06:39:09;;;;;;;30.95;8.95;;;;;;;;;;4338139;32;337706;-82
2023/07/26 06:41:36;;;;;;;18.50;9.60;;;;;;;;;;4327568;32;318084;-83
2023/07/26 06:44:03;;;;;;;17.90;9.38;;;;;;;;;;4338737;32;317796;-82
2023/07/26 06:46:30;;;;;;;18.77;8.20;;;;;;;;;;4337938;32;317549;-85
2023/07/26 06:48:58;;;;;;;24.58;7.95;;;;;;;;;;4327571;32;317745;-82
2023/07/26 06:51:24;;;;;;;21.87;8.85;;;;;;;;;;4337280;32;317947;-82
2023/07/26 06:53:51;;;;;;;19.95;8.02;;;;;;;;;;4325405;32;318219;-82
2023/07/26 06:56:18;;;;;;;19.95;8.60;;;;;;;;;;4322750;32;318486;-82
2023/07/26 06:58:44;;;;;;;29.87;8.43;;;;;;;;;;4312034;32;318703;-82
2023/07/26 07:01:17;;;;;;;28.67;9.35;;;;;;;;;;4330220;32;318284;-84
2023/07/26 07:03:44;;;;;;;18.25;8.30;;;;;;;;;;4334019;32;318201;-83
2023/07/26 07:06:12;;;;;;;19.20;8.80;;;;;;;;;;4350394;32;317636;-85
2023/07/26 07:08:38;;;;;;;17.60;8.43;;;;;;;;;;4342036;32;318269;-84
2023/07/26 07:11:05;;;;;;;25.55;8.68;;;;;;;;;;4349721;32;318532;-84
2023/07/26 07:13:34;;;;;;;14.35;7.40;;;;;;;;;;4352323;32;318718;-83
2023/07/26 07:16:01;;;;;;;23.20;9.00;;;;;;;;;;4337974;32;418464;-83
2023/07/26 07:18:28;;;;;;;24.63;8.55;;;;;;;;;;4352151;32;318596;-83
2023/07/26 07:20:56;;;;;;;18.90;7.37;;;;;;;;;;4342246;32;318247;-83
2023/07/26 07:23:24;;;;;;;21.62;9.35;;;;;;;;;;4351914;32;318187;-83
2023/07/26 07:25:51;;;;;;;22.33;8.95;;;;;;;;;;4342147;32;318491;-85
2023/07/26 07:28:17;;;;;;;23.92;8.57;;;;;;;;;;4351996;32;317769;-86
2023/07/26 07:30:44;;;;;;;19.37;9.00;;;;;;;;;;4352872;32;318108;-84
2023/07/26 07:33:11;;;;;;;26.65;9.23;;;;;;;;;;4367575;32;318119;-83
2023/07/26 07:35:38;;;;;;;28.17;8.65;;;;;;;;;;4358566;32;318135;-82
2023/07/26 07:38:05;;;;;;;19.92;8.57;;;;;;;;;;4361706;32;318103;-82
2023/07/26 07:40:33;;;;;;;21.00;8.50;;;;;;;;;;4362702;32;317896;-82
2023/07/26 07:43:00;;;;;;;27.73;8.60;;;;;;;;;;4342524;32;418702;-85
2023/07/26 07:45:27;;;;;;;20.85;7.53;;;;;;;;;;4352800;32;318681;-86
2023/07/26 07:47:53;;;;;;;18.90;8.98;;;;;;;;;;4342104;32;318421;-84
2023/07/26 07:50:20;;;;;;;18.17;8.38;;;;;;;;;;4352841;32;318763;-84
2023/07/26 07:52:47;;;;;;;22.25;9.82;;;;;;;;;;4342988;32;318208;-84
2023/07/26 07:55:13;;;;;;;22.87;8.65;;;;;;;;;;4351483;32;318352;-84
2023/07/26 07:57:41;;;;;;;24.48;9.32;;;;;;;;;;4342485;32;340170;-83
2023/07/26 08:00:11;;;;;;;21.45;8.80;;;;;;;;;;4351746;32;317953;-84
2023/07/26 08:02:37;;;;;;;22.55;8.60;;;;;;;;;;4341929;32;318448;-85
2023/07/26 08:05:04;;;;;;;31.48;8.93;;;;;;;;;;4343344;32;318315;-83
2023/07/26 08:07:31;;;;;;;24.12;8.27;;;;;;;;;;4336748;32;324201;-84
2023/07/26 08:09:58;;;;;;;20.83;8.38;;;;;;;;;;4328138;32;319114;-86
2023/07/26 08:12:24;;;;;;;27.83;8.25;;;;;;;;;;4360880;32;318088;-83
2023/07/26 08:14:53;;;;;;;23.30;7.93;;;;;;;;;;4348366;32;344984;-84
2023/07/26 08:17:20;;;;;;;27.87;7.28;;;;;;;;;;4340666;32;317673;-84
2023/07/26 08:19:47;;;;;;;25.92;7.95;;;;;;;;;;4326672;32;318262;-84
2023/07/26 08:22:14;;;;;;;19.30;7.07;;;;;;;;;;4338103;32;322680;-83
2023/07/26 08:24:41;;;;;;;29.10;7.10;;;;;;;;;;4330793;32;317373;-83
2023/07/26 08:27:08;;;;;;;25.92;8.02;;;;;;;;;;4340446;32;318149;-83
2023/07/26 08:29:34;;;;;;;29.42;9.93;;;;;;;;;;4329374;32;318371;-83
2023/07/26 08:32:03;;;;;;;25.55;7.15;;;;;;;;;;4340271;32;318172;-83
2023/07/26 08:34:30;;;;;;;29.85;7.15;;;;;;;;;;4340623;32;318115;-83
2023/07/26 08:36:57;;;;;;;15.98;6.82;;;;;;;;;;4329159;32;318449;-83
2023/07/26 08:39:23;;;;;;;17.10;6.70;;;;;;;;;;4339095;32;318124;-83
2023/07/26 08:41:50;;;;;;;14.68;6.07;;;;;;;;;;4330485;32;318375;-83
2023/07/26 08:44:18;;;;;;;16.45;6.80;;;;;;;;;;4339050;32;318226;-83
2023/07/26 08:46:47;;;;;;;27.87;6.85;;;;;;;;;;4329148;32;318389;-84
2023/07/26 08:49:15;;;;;;;20.88;7.03;;;;;;;;;;4338962;32;318476;-84
2023/07/26 08:51:43;;;;;;;22.05;6.50;;;;;;;;;;4328890;32;318034;-83
2023/07/26 08:54:10;;;;;;;24.30;7.00;;;;;;;;;;4355804;32;318338;-83
2023/07/26 08:56:37;;;;;;;18.50;6.97;;;;;;;;;;4338600;32;318210;-84
2023/07/26 08:59:04;;;;;;;22.87;6.50;;;;;;;;;;4355067;32;318331;-83
2023/07/26 09:01:31;;;;;;;26.50;6.35;;;;;;;;;;4365307;32;318144;-83
2023/07/26 09:03:58;;;;;;;21.42;6.43;;;;;;;;;;4353432;32;318681;-83
2023/07/26 09:06:26;;;;;;;13.75;6.03;;;;;;;;;;4354807;32;317391;-83
2023/07/26 09:08:53;;;;;;;20.27;6.70;;;;;;;;;;4350104;32;318024;-83
2023/07/26 09:11:23;;;;;;;25.25;7.45;;;;;;;;;;4360933;32;317721;-83
2023/07/26 09:13:54;;;;;;;26.55;6.82;;;;;;;;;;4357213;32;318581;-84
2023/07/26 09:16:22;;;;;;;18.60;6.70;;;;;;;;;;4354083;32;318249;-83
2023/07/26 09:18:59;;;;;;;23.83;7.07;;;;;;;;;;4343669;32;318280;-84
2023/07/26 09:21:29;;;;;;;15.75;6.20;;;;;;;;;;4354549;32;318247;-82
2023/07/26 09:23:56;;;;;;;20.15;5.53;;;;;;;;;;4344667;32;318319;-83
2023/07/26 09:26:39;;;;;;;26.25;6.72;;;;;;;;;;4354465;32;317738;-83
2023/07/26 09:29:09;;;;;;;23.40;6.90;;;;;;;;;;4340960;32;419453;-83
2023/07/26 09:31:38;;;;;;;16.55;7.80;;;;;;;;;;4343277;32;317628;-84
2023/07/26 09:34:07;;;;;;;18.30;6.80;;;;;;;;;;4352812;32;318376;-83
2023/07/26 09:36:46;;;;;;;27.45;6.50;;;;;;;;;;4346535;32;318502;-85
2023/07/26 09:39:13;;;;;;;24.50;6.47;;;;;;;;;;4353384;32;317638;-84
2023/07/26 09:41:40;;;;;;;21.87;6.85;;;;;;;;;;4344435;32;318241;-84
2023/07/26 09:44:07;;;;;;;21.77;6.70;;;;;;;;;;4352863;32;318405;-83
2023/07/26 09:46:48;;;;;;;18.58;8.10;;;;;;;;;;4342269;32;390109;-84
2023/07/26 09:49:15;;;;;;;16.40;5.82;;;;;;;;;;4353959;32;318114;-83
2023/07/26 09:51:44;;;;;;;26.05;6.25;;;;;;;;;;4343889;32;327960;-83
2023/07/26 09:54:11;;;;;;;19.83;6.18;;;;;;;;;;4352890;32;318138;-83
2023/07/26 09:56:40;;;;;;;15.60;5.90;;;;;;;;;;4343940;32;318135;-83
2023/07/26 09:59:10;;;;;;;17.92;6.45;;;;;;;;;;4348703;32;317541;-83
2023/07/26 10:01:43;;;;;;;27.70;6.35;;;;;;;;;;4336690;32;318768;-84
2023/07/26 10:04:13;;;;;;;15.73;6.82;;;;;;;;;;4343653;32;335342;-82
2023/07/26 10:06:42;;;;;;;17.17;6.85;;;;;;;;;;4328134;32;318672;-84
2023/07/26 10:09:14;;;;;;;18.05;5.90;;;;;;;;;;4339086;32;317568;-84
2023/07/26 10:11:42;;;;;;;15.50;5.95;;;;;;;;;;4324249;32;318342;-83
2023/07/26 10:14:10;;;;;;;20.20;6.35;;;;;;;;;;4337717;32;318273;-84
2023/07/26 10:16:38;;;;;;;23.62;8.00;;;;;;;;;;4341437;32;318210;-85
2023/07/26 10:19:05;;;;;;;29.30;8.05;;;;;;;;;;4351705;32;348146;-83
2023/07/26 10:21:32;;;;;;;16.58;5.82;;;;;;;;;;4352239;32;318289;-83
2023/07/26 10:24:02;;;;;;;21.15;5.47;;;;;;;;;;4340178;32;420157;-83
2023/07/26 10:26:33;;;;;;;24.33;7.82;;;;;;;;;;4352415;32;318084;-83
2023/07/26 10:29:01;;;;;;;19.65;6.95;;;;;;;;;;4339823;32;416897;-84
2023/07/26 10:31:28;;;;;;;26.12;7.37;;;;;;;;;;4352214;32;317572;-83
2023/07/26 10:33:55;;;;;;;22.50;6.55;;;;;;;;;;4342765;32;318142;-83
2023/07/26 10:36:27;;;;;;;16.95;6.95;;;;;;;;;;4353538;32;318554;-83
2023/07/26 10:38:54;;;;;;;16.55;6.72;;;;;;;;;;4342683;32;318361;-84
2023/07/26 10:41:23;;;;;;;30.08;7.50;;;;;;;;;;4353398;32;318285;-83
2023/07/26 10:44:01;;;;;;;19.60;7.32;;;;;;;;;;4342194;32;318335;-83
2023/07/26 10:46:28;;;;;;;18.90;5.57;;;;;;;;;;4349725;32;318434;-85
2023/07/26 10:48:54;;;;;;;20.58;6.60;;;;;;;;;;4341629;32;330616;-87
2023/07/26 10:51:26;;;;;;;12.35;6.03;;;;;;;;;;4351063;32;318579;-86
2023/07/26 10:53:55;;;;;;;18.52;5.55;;;;;;;;;;4341601;32;317824;-86
2023/07/26 10:56:24;;;;;;;21.50;7.47;;;;;;;;;;4351299;32;318711;-83
2023/07/26 10:58:54;;;;;;;15.77;6.28;;;;;;;;;;4340290;32;318524;-85
2023/07/26 11:01:38;;;;;;;22.95;6.50;;;;;;;;;;4353171;32;318223;-86
2023/07/26 11:04:11;;;;;;;22.10;6.40;;;;;;;;;;4338780;32;417503;-82
2023/07/26 11:06:55;;;;;;;22.13;5.60;;;;;;;;;;4340682;32;356303;-86
2023/07/26 11:09:25;;;;;;;30.67;7.07;;;;;;;;;;4350799;32;317917;-86
2023/07/26 11:11:56;;;;;;;19.92;6.32;;;;;;;;;;4341711;32;318039;-87
2023/07/26 11:14:25;;;;;;;16.70;6.10;;;;;;;;;;4351614;32;317582;-84
2023/07/26 11:16:53;;;;;;;35.55;7.75;;;;;;;;;;4341724;32;318518;-88
2023/07/26 11:19:19;;;;;;;23.83;7.22;;;;;;;;;;4352194;32;318558;-83
2023/07/26 11:21:46;;;;;;;25.70;7.62;;;;;;;;;;4343045;32;317933;-83
2023/07/26 11:24:13;;;;;;;21.73;5.93;;;;;;;;;;4352854;32;318291;-84
2023/07/26 11:26:41;;;;;;;25.12;6.93;;;;;;;;;;4339931;32;318191;-85
2023/07/26 11:29:09;;;;;;;16.25;5.95;;;;;;;;;;4352771;32;317668;-86
2023/07/26 11:31:37;;;;;;;24.98;7.30;;;;;;;;;;4337941;32;344735;-85
2023/07/26 11:34:14;;;;;;;22.85;7.22;;;;;;;;;;4351654;32;318050;-83
2023/07/26 11:36:41;;;;;;;17.12;6.10;;;;;;;;;;4342959;32;318325;-90
2023/07/26 11:39:18;;;;;;;34.40;7.28;;;;;;;;;;4352747;32;318273;-85
2023/07/26 11:41:45;;;;;;;15.60;6.25;;;;;;;;;;4341693;32;318611;-86
2023/07/26 11:44:12;;;;;;;17.50;5.97;;;;;;;;;;4336945;32;318043;-86
2023/07/26 11:46:43;;;;;;;16.85;5.95;;;;;;;;;;4328015;32;318646;-85
2023/07/26 11:49:12;;;;;;;18.80;7.18;;;;;;;;;;4336242;32;317988;-86
2023/07/26 11:51:38;;;;;;;21.10;5.57;;;;;;;;;;4327813;32;324194;-84
2023/07/26 11:54:09;;;;;;;33.65;7.53;;;;;;;;;;4341279;32;317537;-84
2023/07/26 11:56:37;;;;;;;18.23;5.78;;;;;;;;;;4344042;32;317713;-84
2023/07/26 11:59:04;;;;;;;18.10;6.82;;;;;;;;;;4353261;32;318268;-84
2023/07/26 12:01:32;;;;;;;19.17;7.15;;;;;;;;;;4354600;32;318279;-84
2023/07/26 12:04:01;;;;;;;23.12;6.70;;;;;;;;;;4341763;32;419551;-83
2023/07/26 12:06:31;;;;;;;22.85;6.97;;;;;;;;;;4355588;32;322460;-83
2023/07/26 12:09:08;;;;;;;23.17;6.87;;;;;;;;;;4343873;32;350117;-84
2023/07/26 12:11:35;;;;;;;16.40;5.97;;;;;;;;;;4341100;32;345544;-84
2023/07/26 12:14:02;;;;;;;20.67;6.20;;;;;;;;;;4355356;32;318267;-84
2023/07/26 12:16:31;;;;;;;25.73;6.95;;;;;;;;;;4349892;32;318159;-84
2023/07/26 12:19:01;;;;;;;22.85;5.70;;;;;;;;;;4331129;32;317951;-84
2023/07/26 12:21:29;;;;;;;20.88;6.87;;;;;;;;;;4340690;32;318122;-85
2023/07/26 12:23:58;;;;;;;20.15;6.22;;;;;;;;;;4330947;32;318312;-84
2023/07/26 12:26:26;;;;;;;20.08;7.18;;;;;;;;;;4339331;32;317599;-84
2023/07/26 12:28:54;;;;;;;16.62;6.57;;;;;;;;;;4330742;32;317974;-83
2023/07/26 12:31:23;;;;;;;19.62;6.32;;;;;;;;;;4346295;32;318613;-82
2023/07/26 12:34:02;;;;;;;18.25;6.37;;;;;;;;;;4338553;32;318185;-82
2023/07/26 12:36:46;;;;;;;21.35;6.97;;;;;;;;;;4357540;32;316802;-83
2023/07/26 12:39:14;;;;;;;18.45;6.62;;;;;;;;;;4349953;32;416038;-85
2023/07/26 12:41:41;;;;;;;18.75;6.22;;;;;;;;;;4352490;32;318304;-83
2023/07/26 12:44:08;;;;;;;12.85;5.50;;;;;;;;;;4354345;32;318325;-85
2023/07/26 12:46:35;;;;;;;20.85;7.20;;;;;;;;;;4345667;32;318600;-83
2023/07/26 12:49:04;;;;;;;20.02;6.55;;;;;;;;;;4355205;32;317623;-83
2023/07/26 12:51:33;;;;;;;27.92;6.82;;;;;;;;;;4355053;32;318312;-83
2023/07/26 12:54:02;;;;;;;23.02;6.80;;;;;;;;;;4342294;32;417714;-83
2023/07/26 12:56:29;;;;;;;17.52;6.10;;;;;;;;;;4353743;32;318387;-84
2023/07/26 12:58:55;;;;;;;21.55;6.47;;;;;;;;;;4344511;32;334685;-83
2023/07/26 13:01:22;;;;;;;22.58;6.05;;;;;;;;;;4354933;32;318181;-83
2023/07/26 13:03:49;;;;;;;20.02;6.28;;;;;;;;;;4344998;32;318410;-83
2023/07/26 13:06:16;;;;;;;11.00;5.62;;;;;;;;;;4353448;32;318136;-82
2023/07/26 13:08:44;;;;;;;26.57;6.17;;;;;;;;;;4336274;32;341848;-83
2023/07/26 13:11:12;;;;;;;19.35;6.30;;;;;;;;;;4357396;32;318316;-82
2023/07/26 13:13:39;;;;;;;10.27;5.05;;;;;;;;;;4328913;32;318327;-82
2023/07/26 13:16:06;;;;;;;22.08;6.60;;;;;;;;;;4352983;32;317734;-83
2023/07/26 13:18:32;;;;;;;13.13;6.20;;;;;;;;;;4354750;32;317745;-82
2023/07/26 13:20:59;;;;;;;11.52;5.90;;;;;;;;;;4341858;32;417848;-83
2023/07/26 13:23:26;;;;;;;15.15;5.60;;;;;;;;;;4354993;32;317776;-82
2023/07/26 13:25:54;;;;;;;14.00;5.37;;;;;;;;;;4344715;32;318724;-82
2023/07/26 13:28:20;;;;;;;12.90;6.03;;;;;;;;;;4354360;32;319023;-83
2023/07/26 13:30:47;;;;;;;11.38;4.87;;;;;;;;;;4345073;32;318310;-85
2023/07/26 13:33:14;;;;;;;21.60;6.07;;;;;;;;;;4350229;32;318206;-84
2023/07/26 13:35:41;;;;;;;24.33;6.35;;;;;;;;;;4330083;32;318588;-84
2023/07/26 13:38:08;;;;;;;23.62;7.03;;;;;;;;;;4341147;32;317850;-83
2023/07/26 13:40:34;;;;;;;20.50;6.53;;;;;;;;;;4331379;32;318260;-85
2023/07/26 13:43:02;;;;;;;16.27;6.18;;;;;;;;;;4341890;32;318693;-84
2023/07/26 13:45:29;;;;;;;12.68;5.40;;;;;;;;;;4338738;32;318170;-84
2023/07/26 13:47:56;;;;;;;14.93;5.95;;;;;;;;;;4353136;32;318482;-85
2023/07/26 13:50:23;;;;;;;11.87;6.00;;;;;;;;;;4343860;32;330644;-83
2023/07/26 13:52:50;;;;;;;19.25;6.35;;;;;;;;;;4354383;32;318885;-84
2023/07/26 13:55:16;;;;;;;17.83;5.70;;;;;;;;;;4346397;32;318579;-83
2023/07/26 13:57:43;;;;;;;14.02;5.40;;;;;;;;;;4354777;32;317442;-83
2023/07/26 14:00:12;;;;;;;14.85;5.25;;;;;;;;;;4342348;32;348896;-83
2023/07/26 14:02:39;;;;;;;19.05;5.68;;;;;;;;;;4354806;32;318462;-83
2023/07/26 14:05:07;;;;;;;16.40;5.35;;;;;;;;;;4353672;32;317653;-83
2023/07/26 14:07:33;;;;;;;13.77;5.78;;;;;;;;;;4344305;32;318695;-83
2023/07/26 14:10:00;;;;;;;28.48;6.93;;;;;;;;;;4352732;32;318737;-84
2023/07/26 14:12:27;;;;;;;24.43;5.90;;;;;;;;;;4342758;32;318621;-83
2023/07/26 14:14:53;;;;;;;15.68;6.68;;;;;;;;;;4353714;32;317567;-83
2023/07/26 14:17:21;;;;;;;13.38;5.68;;;;;;;;;;4342515;32;317747;-83
2023/07/26 14:19:48;;;;;;;15.05;6.07;;;;;;;;;;4352428;32;318356;-84